sensor_id;sensor_type;location;lat;lon;timestamp;P1;durP1;ratioP1;P2;durP2;ratioP2
12776;SDS011;6452;41.572;23.732;2023-04-19T00:00:50;1.63;;;1.52;;
12776;SDS011;6452;41.572;23.732;2023-04-19T00:03:17;1.48;;;1.40;;
12776;SDS011;6452;41.572;23.732;2023-04-19T00:05:43;1.90;;;1.52;;
12776;SDS011;6452;41.572;23.732;2023-04-19T00:08:09;1.27;;;1.27;;
12776;SDS011;6452;41.572;23.732;2023-04-19T00:10:35;1.58;;;1.48;;
12776;SDS011;6452;41.572;23.732;2023-04-19T00:13:03;1.08;;;1.08;;
12776;SDS011;6452;41.572;23.732;2023-04-19T00:15:30;3.17;;;1.42;;
12776;SDS011;6452;41.572;23.732;2023-04-19T00:17:56;2.20;;;1.70;;
12776;SDS011;6452;41.572;23.732;2023-04-19T00:20:22;1.67;;;1.50;;
12776;SDS011;6452;41.572;23.732;2023-04-19T00:22:48;2.00;;;1.90;;
12776;SDS011;6452;41.572;23.732;2023-04-19T00:25:15;1.73;;;1.63;;
12776;SDS011;6452;41.572;23.732;2023-04-19T00:27:41;2.15;;;2.05;;
12776;SDS011;6452;41.572;23.732;2023-04-19T00:30:07;1.35;;;1.33;;
12776;SDS011;6452;41.572;23.732;2023-04-19T00:32:32;2.08;;;1.58;;
12776;SDS011;6452;41.572;23.732;2023-04-19T00:34:58;1.55;;;1.45;;
12776;SDS011;6452;41.572;23.732;2023-04-19T00:37:24;1.38;;;1.27;;
12776;SDS011;6452;41.572;23.732;2023-04-19T00:39:51;1.00;;;1.00;;
12776;SDS011;6452;41.572;23.732;2023-04-19T00:42:17;1.45;;;1.35;;
12776;SDS011;6452;41.572;23.732;2023-04-19T00:44:43;1.20;;;1.20;;
12776;SDS011;6452;41.572;23.732;2023-04-19T00:47:09;1.45;;;1.45;;
12776;SDS011;6452;41.572;23.732;2023-04-19T00:49:35;1.00;;;1.00;;
12776;SDS011;6452;41.572;23.732;2023-04-19T00:52:01;1.10;;;1.10;;
12776;SDS011;6452;41.572;23.732;2023-04-19T00:54:27;0.98;;;0.98;;
12776;SDS011;6452;41.572;23.732;2023-04-19T00:56:55;0.95;;;0.95;;
12776;SDS011;6452;41.572;23.732;2023-04-19T00:59:21;0.77;;;0.77;;
12776;SDS011;6452;41.572;23.732;2023-04-19T01:01:47;0.98;;;0.98;;
12776;SDS011;6452;41.572;23.732;2023-04-19T01:04:13;0.80;;;0.80;;
12776;SDS011;6452;41.572;23.732;2023-04-19T01:06:40;0.80;;;0.80;;
12776;SDS011;6452;41.572;23.732;2023-04-19T01:09:06;1.10;;;1.10;;
12776;SDS011;6452;41.572;23.732;2023-04-19T01:11:32;1.30;;;1.27;;
12776;SDS011;6452;41.572;23.732;2023-04-19T01:13:58;1.30;;;1.30;;
12776;SDS011;6452;41.572;23.732;2023-04-19T01:16:25;1.80;;;1.70;;
12776;SDS011;6452;41.572;23.732;2023-04-19T01:18:51;1.50;;;1.50;;
12776;SDS011;6452;41.572;23.732;2023-04-19T01:21:17;1.40;;;1.40;;
12776;SDS011;6452;41.572;23.732;2023-04-19T01:23:43;2.40;;;1.48;;
12776;SDS011;6452;41.572;23.732;2023-04-19T01:26:09;1.58;;;1.48;;
12776;SDS011;6452;41.572;23.732;2023-04-19T01:28:35;1.60;;;1.55;;
12776;SDS011;6452;41.572;23.732;2023-04-19T01:31:01;1.70;;;1.60;;
12776;SDS011;6452;41.572;23.732;2023-04-19T01:33:28;1.27;;;1.27;;
12776;SDS011;6452;41.572;23.732;2023-04-19T01:35:53;2.50;;;2.00;;
12776;SDS011;6452;41.572;23.732;2023-04-19T01:38:20;1.25;;;1.25;;
12776;SDS011;6452;41.572;23.732;2023-04-19T01:40:46;2.03;;;1.85;;
12776;SDS011;6452;41.572;23.732;2023-04-19T01:43:12;8.88;;;5.47;;
12776;SDS011;6452;41.572;23.732;2023-04-19T01:45:39;4.03;;;3.15;;
12776;SDS011;6452;41.572;23.732;2023-04-19T01:48:04;2.55;;;2.38;;
12776;SDS011;6452;41.572;23.732;2023-04-19T01:50:30;2.78;;;2.60;;
12776;SDS011;6452;41.572;23.732;2023-04-19T01:52:57;2.60;;;2.40;;
12776;SDS011;6452;41.572;23.732;2023-04-19T01:55:23;3.42;;;2.50;;
12776;SDS011;6452;41.572;23.732;2023-04-19T01:57:49;2.22;;;2.13;;
12776;SDS011;6452;41.572;23.732;2023-04-19T02:00:17;1.98;;;1.88;;
12776;SDS011;6452;41.572;23.732;2023-04-19T02:02:43;2.95;;;2.05;;
12776;SDS011;6452;41.572;23.732;2023-04-19T02:05:09;1.80;;;1.70;;
12776;SDS011;6452;41.572;23.732;2023-04-19T02:07:35;1.77;;;1.67;;
12776;SDS011;6452;41.572;23.732;2023-04-19T02:10:02;2.45;;;2.28;;
12776;SDS011;6452;41.572;23.732;2023-04-19T02:12:28;2.08;;;1.98;;
12776;SDS011;6452;41.572;23.732;2023-04-19T02:14:55;2.38;;;2.28;;
12776;SDS011;6452;41.572;23.732;2023-04-19T02:17:22;2.88;;;2.67;;
12776;SDS011;6452;41.572;23.732;2023-04-19T02:19:48;3.47;;;2.88;;
12776;SDS011;6452;41.572;23.732;2023-04-19T02:22:14;3.20;;;2.65;;
12776;SDS011;6452;41.572;23.732;2023-04-19T02:24:40;3.38;;;2.90;;
12776;SDS011;6452;41.572;23.732;2023-04-19T02:27:06;3.65;;;2.90;;
12776;SDS011;6452;41.572;23.732;2023-04-19T02:29:32;2.40;;;2.17;;
12776;SDS011;6452;41.572;23.732;2023-04-19T02:31:59;2.30;;;2.00;;
12776;SDS011;6452;41.572;23.732;2023-04-19T02:34:26;2.60;;;2.47;;
12776;SDS011;6452;41.572;23.732;2023-04-19T02:36:52;2.47;;;2.38;;
12776;SDS011;6452;41.572;23.732;2023-04-19T02:39:19;2.53;;;2.33;;
12776;SDS011;6452;41.572;23.732;2023-04-19T02:41:45;2.80;;;2.60;;
12776;SDS011;6452;41.572;23.732;2023-04-19T02:44:11;3.40;;;3.10;;
12776;SDS011;6452;41.572;23.732;2023-04-19T02:46:37;2.58;;;2.38;;
12776;SDS011;6452;41.572;23.732;2023-04-19T02:49:03;3.85;;;3.15;;
12776;SDS011;6452;41.572;23.732;2023-04-19T02:51:30;5.57;;;4.20;;
12776;SDS011;6452;41.572;23.732;2023-04-19T02:53:56;5.70;;;4.18;;
12776;SDS011;6452;41.572;23.732;2023-04-19T02:56:22;2.70;;;2.50;;
12776;SDS011;6452;41.572;23.732;2023-04-19T02:58:52;3.25;;;2.53;;
12776;SDS011;6452;41.572;23.732;2023-04-19T03:01:18;10.00;;;6.30;;
12776;SDS011;6452;41.572;23.732;2023-04-19T03:03:44;18.15;;;10.13;;
12776;SDS011;6452;41.572;23.732;2023-04-19T03:06:09;5.35;;;3.83;;
12776;SDS011;6452;41.572;23.732;2023-04-19T03:08:36;6.28;;;4.70;;
12776;SDS011;6452;41.572;23.732;2023-04-19T03:11:02;4.35;;;3.80;;
12776;SDS011;6452;41.572;23.732;2023-04-19T03:13:28;6.22;;;4.60;;
12776;SDS011;6452;41.572;23.732;2023-04-19T03:15:54;9.15;;;6.28;;
12776;SDS011;6452;41.572;23.732;2023-04-19T03:18:20;22.58;;;12.48;;
12776;SDS011;6452;41.572;23.732;2023-04-19T03:20:47;22.23;;;12.48;;
12776;SDS011;6452;41.572;23.732;2023-04-19T03:23:13;21.00;;;12.27;;
12776;SDS011;6452;41.572;23.732;2023-04-19T03:25:39;10.45;;;6.75;;
12776;SDS011;6452;41.572;23.732;2023-04-19T03:28:05;6.38;;;3.88;;
12776;SDS011;6452;41.572;23.732;2023-04-19T03:30:31;3.75;;;3.35;;
12776;SDS011;6452;41.572;23.732;2023-04-19T03:32:57;6.38;;;3.05;;
12776;SDS011;6452;41.572;23.732;2023-04-19T03:35:24;3.00;;;2.67;;
12776;SDS011;6452;41.572;23.732;2023-04-19T03:37:51;2.72;;;2.53;;
12776;SDS011;6452;41.572;23.732;2023-04-19T03:40:17;1.77;;;1.67;;
12776;SDS011;6452;41.572;23.732;2023-04-19T03:42:43;1.85;;;1.75;;
12776;SDS011;6452;41.572;23.732;2023-04-19T03:45:10;2.30;;;2.20;;
12776;SDS011;6452;41.572;23.732;2023-04-19T03:47:35;2.67;;;2.47;;
12776;SDS011;6452;41.572;23.732;2023-04-19T03:50:02;4.07;;;2.33;;
12776;SDS011;6452;41.572;23.732;2023-04-19T03:52:28;5.03;;;3.63;;
12776;SDS011;6452;41.572;23.732;2023-04-19T03:54:54;4.03;;;3.72;;
12776;SDS011;6452;41.572;23.732;2023-04-19T03:57:20;4.13;;;3.72;;
12776;SDS011;6452;41.572;23.732;2023-04-19T03:59:46;5.53;;;4.97;;
12776;SDS011;6452;41.572;23.732;2023-04-19T04:02:13;5.60;;;4.43;;
12776;SDS011;6452;41.572;23.732;2023-04-19T04:04:39;7.50;;;5.18;;
12776;SDS011;6452;41.572;23.732;2023-04-19T04:07:05;5.53;;;3.95;;
12776;SDS011;6452;41.572;23.732;2023-04-19T04:09:31;3.58;;;3.38;;
12776;SDS011;6452;41.572;23.732;2023-04-19T04:11:57;4.28;;;3.67;;
12776;SDS011;6452;41.572;23.732;2023-04-19T04:14:28;4.43;;;4.00;;
12776;SDS011;6452;41.572;23.732;2023-04-19T04:16:54;5.15;;;4.65;;
12776;SDS011;6452;41.572;23.732;2023-04-19T04:19:21;10.63;;;6.80;;
12776;SDS011;6452;41.572;23.732;2023-04-19T04:21:47;13.65;;;9.85;;
12776;SDS011;6452;41.572;23.732;2023-04-19T04:24:13;10.32;;;8.43;;
12776;SDS011;6452;41.572;23.732;2023-04-19T04:26:42;7.95;;;5.90;;
12776;SDS011;6452;41.572;23.732;2023-04-19T04:29:08;8.73;;;7.25;;
12776;SDS011;6452;41.572;23.732;2023-04-19T04:31:35;4.57;;;3.55;;
12776;SDS011;6452;41.572;23.732;2023-04-19T04:34:01;4.40;;;3.00;;
12776;SDS011;6452;41.572;23.732;2023-04-19T04:36:28;3.05;;;2.85;;
12776;SDS011;6452;41.572;23.732;2023-04-19T04:38:54;3.17;;;2.92;;
12776;SDS011;6452;41.572;23.732;2023-04-19T04:41:22;4.28;;;3.53;;
12776;SDS011;6452;41.572;23.732;2023-04-19T04:43:48;3.85;;;3.53;;
12776;SDS011;6452;41.572;23.732;2023-04-19T04:46:16;3.92;;;3.63;;
12776;SDS011;6452;41.572;23.732;2023-04-19T04:48:41;4.15;;;3.47;;
12776;SDS011;6452;41.572;23.732;2023-04-19T04:51:08;5.75;;;5.10;;
12776;SDS011;6452;41.572;23.732;2023-04-19T04:53:34;9.50;;;5.38;;
12776;SDS011;6452;41.572;23.732;2023-04-19T04:56:00;6.03;;;5.20;;
12776;SDS011;6452;41.572;23.732;2023-04-19T04:58:27;8.93;;;6.70;;
12776;SDS011;6452;41.572;23.732;2023-04-19T05:00:53;6.13;;;5.53;;
12776;SDS011;6452;41.572;23.732;2023-04-19T05:03:19;9.40;;;6.53;;
12776;SDS011;6452;41.572;23.732;2023-04-19T05:05:45;8.05;;;6.68;;
12776;SDS011;6452;41.572;23.732;2023-04-19T05:08:11;9.85;;;6.82;;
12776;SDS011;6452;41.572;23.732;2023-04-19T05:10:37;9.88;;;6.18;;
12776;SDS011;6452;41.572;23.732;2023-04-19T05:13:03;7.28;;;6.28;;
12776;SDS011;6452;41.572;23.732;2023-04-19T05:15:29;8.27;;;6.85;;
12776;SDS011;6452;41.572;23.732;2023-04-19T05:17:56;9.80;;;7.20;;
12776;SDS011;6452;41.572;23.732;2023-04-19T05:20:22;7.32;;;6.63;;
12776;SDS011;6452;41.572;23.732;2023-04-19T05:22:48;8.23;;;6.63;;
12776;SDS011;6452;41.572;23.732;2023-04-19T05:25:14;8.45;;;6.63;;
12776;SDS011;6452;41.572;23.732;2023-04-19T05:27:40;10.32;;;8.38;;
12776;SDS011;6452;41.572;23.732;2023-04-19T05:30:07;10.57;;;8.38;;
12776;SDS011;6452;41.572;23.732;2023-04-19T05:32:33;11.10;;;8.75;;
12776;SDS011;6452;41.572;23.732;2023-04-19T05:34:59;8.63;;;7.20;;
12776;SDS011;6452;41.572;23.732;2023-04-19T05:37:25;11.23;;;8.10;;
12776;SDS011;6452;41.572;23.732;2023-04-19T05:39:52;10.73;;;8.60;;
12776;SDS011;6452;41.572;23.732;2023-04-19T05:42:18;17.90;;;9.98;;
12776;SDS011;6452;41.572;23.732;2023-04-19T05:44:44;11.52;;;8.48;;
12776;SDS011;6452;41.572;23.732;2023-04-19T05:47:10;12.65;;;9.45;;
12776;SDS011;6452;41.572;23.732;2023-04-19T05:49:37;15.93;;;9.13;;
12776;SDS011;6452;41.572;23.732;2023-04-19T05:52:03;12.93;;;8.63;;
12776;SDS011;6452;41.572;23.732;2023-04-19T05:54:30;11.50;;;8.25;;
12776;SDS011;6452;41.572;23.732;2023-04-19T05:57:00;12.80;;;8.68;;
12776;SDS011;6452;41.572;23.732;2023-04-19T05:59:26;12.30;;;7.75;;
12776;SDS011;6452;41.572;23.732;2023-04-19T06:01:52;9.30;;;7.40;;
12776;SDS011;6452;41.572;23.732;2023-04-19T06:04:20;9.48;;;6.55;;
12776;SDS011;6452;41.572;23.732;2023-04-19T06:06:46;9.95;;;7.47;;
12776;SDS011;6452;41.572;23.732;2023-04-19T06:09:12;7.93;;;6.78;;
12776;SDS011;6452;41.572;23.732;2023-04-19T06:11:39;10.75;;;7.28;;
12776;SDS011;6452;41.572;23.732;2023-04-19T06:14:05;11.55;;;7.90;;
12776;SDS011;6452;41.572;23.732;2023-04-19T06:16:31;8.68;;;7.72;;
12776;SDS011;6452;41.572;23.732;2023-04-19T06:18:58;10.60;;;8.43;;
12776;SDS011;6452;41.572;23.732;2023-04-19T06:21:24;11.50;;;8.68;;
12776;SDS011;6452;41.572;23.732;2023-04-19T06:23:51;9.93;;;7.68;;
12776;SDS011;6452;41.572;23.732;2023-04-19T06:26:17;9.27;;;6.97;;
12776;SDS011;6452;41.572;23.732;2023-04-19T06:28:43;8.40;;;6.55;;
12776;SDS011;6452;41.572;23.732;2023-04-19T06:31:10;9.13;;;6.97;;
12776;SDS011;6452;41.572;23.732;2023-04-19T06:33:36;7.97;;;6.65;;
12776;SDS011;6452;41.572;23.732;2023-04-19T06:36:03;9.05;;;6.93;;
12776;SDS011;6452;41.572;23.732;2023-04-19T06:38:29;7.20;;;6.50;;
12776;SDS011;6452;41.572;23.732;2023-04-19T06:40:55;8.82;;;6.85;;
12776;SDS011;6452;41.572;23.732;2023-04-19T06:43:22;7.63;;;6.70;;
12776;SDS011;6452;41.572;23.732;2023-04-19T06:45:47;6.90;;;5.85;;
12776;SDS011;6452;41.572;23.732;2023-04-19T06:48:17;8.18;;;6.28;;
12776;SDS011;6452;41.572;23.732;2023-04-19T06:50:43;7.85;;;5.93;;
12776;SDS011;6452;41.572;23.732;2023-04-19T06:53:10;7.97;;;5.40;;
12776;SDS011;6452;41.572;23.732;2023-04-19T06:55:36;6.15;;;4.75;;
12776;SDS011;6452;41.572;23.732;2023-04-19T06:58:06;6.53;;;5.72;;
12776;SDS011;6452;41.572;23.732;2023-04-19T07:00:35;6.97;;;5.57;;
12776;SDS011;6452;41.572;23.732;2023-04-19T07:03:01;5.93;;;5.32;;
12776;SDS011;6452;41.572;23.732;2023-04-19T07:05:28;4.93;;;4.47;;
12776;SDS011;6452;41.572;23.732;2023-04-19T07:07:54;6.10;;;4.30;;
12776;SDS011;6452;41.572;23.732;2023-04-19T07:10:21;5.68;;;5.03;;
12776;SDS011;6452;41.572;23.732;2023-04-19T07:12:47;6.60;;;4.88;;
12776;SDS011;6452;41.572;23.732;2023-04-19T07:15:13;5.25;;;4.75;;
12776;SDS011;6452;41.572;23.732;2023-04-19T07:17:39;5.57;;;4.50;;
12776;SDS011;6452;41.572;23.732;2023-04-19T07:20:05;3.38;;;3.17;;
12776;SDS011;6452;41.572;23.732;2023-04-19T07:22:33;2.20;;;2.10;;
12776;SDS011;6452;41.572;23.732;2023-04-19T07:25:00;2.60;;;2.40;;
12776;SDS011;6452;41.572;23.732;2023-04-19T07:27:26;2.13;;;2.03;;
12776;SDS011;6452;41.572;23.732;2023-04-19T07:29:52;2.08;;;1.98;;
12776;SDS011;6452;41.572;23.732;2023-04-19T07:32:18;2.42;;;2.22;;
12776;SDS011;6452;41.572;23.732;2023-04-19T07:34:45;2.30;;;2.20;;
12776;SDS011;6452;41.572;23.732;2023-04-19T07:37:11;2.25;;;2.15;;
12776;SDS011;6452;41.572;23.732;2023-04-19T07:39:38;2.53;;;2.42;;
12776;SDS011;6452;41.572;23.732;2023-04-19T07:42:04;3.38;;;2.63;;
12776;SDS011;6452;41.572;23.732;2023-04-19T07:44:31;4.25;;;2.30;;
12776;SDS011;6452;41.572;23.732;2023-04-19T07:46:57;1.92;;;1.83;;
12776;SDS011;6452;41.572;23.732;2023-04-19T07:49:23;1.65;;;1.60;;
12776;SDS011;6452;41.572;23.732;2023-04-19T07:51:49;1.70;;;1.70;;
12776;SDS011;6452;41.572;23.732;2023-04-19T07:54:16;3.05;;;2.78;;
12776;SDS011;6452;41.572;23.732;2023-04-19T07:56:45;3.47;;;3.17;;
12776;SDS011;6452;41.572;23.732;2023-04-19T07:59:11;3.70;;;3.40;;
12776;SDS011;6452;41.572;23.732;2023-04-19T08:01:37;3.75;;;3.45;;
12776;SDS011;6452;41.572;23.732;2023-04-19T08:04:03;3.90;;;3.60;;
12776;SDS011;6452;41.572;23.732;2023-04-19T08:06:29;4.07;;;3.75;;
12776;SDS011;6452;41.572;23.732;2023-04-19T08:08:56;3.70;;;3.40;;
12776;SDS011;6452;41.572;23.732;2023-04-19T08:11:22;3.30;;;3.00;;
12776;SDS011;6452;41.572;23.732;2023-04-19T08:13:49;3.20;;;3.00;;
12776;SDS011;6452;41.572;23.732;2023-04-19T08:16:16;2.72;;;2.53;;
12776;SDS011;6452;41.572;23.732;2023-04-19T08:18:42;3.22;;;2.92;;
12776;SDS011;6452;41.572;23.732;2023-04-19T08:21:10;3.00;;;2.78;;
12776;SDS011;6452;41.572;23.732;2023-04-19T08:23:36;2.70;;;2.50;;
12776;SDS011;6452;41.572;23.732;2023-04-19T08:26:02;2.88;;;2.67;;
12776;SDS011;6452;41.572;23.732;2023-04-19T08:28:28;3.83;;;3.17;;
12776;SDS011;6452;41.572;23.732;2023-04-19T08:30:56;2.30;;;2.20;;
12776;SDS011;6452;41.572;23.732;2023-04-19T08:33:22;2.60;;;2.40;;
12776;SDS011;6452;41.572;23.732;2023-04-19T08:35:48;2.60;;;2.50;;
12776;SDS011;6452;41.572;23.732;2023-04-19T08:38:14;2.60;;;2.47;;
12776;SDS011;6452;41.572;23.732;2023-04-19T08:40:42;2.40;;;2.30;;
12776;SDS011;6452;41.572;23.732;2023-04-19T08:43:11;2.83;;;2.60;;
12776;SDS011;6452;41.572;23.732;2023-04-19T08:45:37;2.67;;;2.45;;
12776;SDS011;6452;41.572;23.732;2023-04-19T08:48:03;2.65;;;2.53;;
12776;SDS011;6452;41.572;23.732;2023-04-19T08:50:30;2.92;;;2.72;;
12776;SDS011;6452;41.572;23.732;2023-04-19T08:52:59;2.72;;;2.53;;
12776;SDS011;6452;41.572;23.732;2023-04-19T08:55:26;2.92;;;2.72;;
12776;SDS011;6452;41.572;23.732;2023-04-19T08:57:52;2.90;;;2.70;;
12776;SDS011;6452;41.572;23.732;2023-04-19T09:00:18;2.15;;;2.05;;
12776;SDS011;6452;41.572;23.732;2023-04-19T09:02:46;2.38;;;2.28;;
12776;SDS011;6452;41.572;23.732;2023-04-19T09:05:13;2.67;;;2.47;;
12776;SDS011;6452;41.572;23.732;2023-04-19T09:07:40;2.53;;;2.33;;
12776;SDS011;6452;41.572;23.732;2023-04-19T09:10:07;2.25;;;2.15;;
12776;SDS011;6452;41.572;23.732;2023-04-19T09:12:34;1.95;;;1.85;;
12776;SDS011;6452;41.572;23.732;2023-04-19T09:15:00;2.58;;;1.77;;
12776;SDS011;6452;41.572;23.732;2023-04-19T09:17:31;2.00;;;1.90;;
12776;SDS011;6452;41.572;23.732;2023-04-19T09:19:57;1.70;;;1.60;;
12776;SDS011;6452;41.572;23.732;2023-04-19T09:22:24;1.90;;;1.80;;
12776;SDS011;6452;41.572;23.732;2023-04-19T09:24:50;1.80;;;1.80;;
12776;SDS011;6452;41.572;23.732;2023-04-19T09:27:18;1.90;;;1.80;;
12776;SDS011;6452;41.572;23.732;2023-04-19T09:29:55;2.63;;;2.42;;
12776;SDS011;6452;41.572;23.732;2023-04-19T09:32:22;2.53;;;2.40;;
12776;SDS011;6452;41.572;23.732;2023-04-19T09:34:52;1.65;;;1.55;;
12776;SDS011;6452;41.572;23.732;2023-04-19T09:37:25;1.58;;;1.30;;
12776;SDS011;6452;41.572;23.732;2023-04-19T09:39:51;1.75;;;1.63;;
12776;SDS011;6452;41.572;23.732;2023-04-19T09:42:17;1.33;;;1.23;;
12776;SDS011;6452;41.572;23.732;2023-04-19T09:44:59;1.10;;;1.10;;
12776;SDS011;6452;41.572;23.732;2023-04-19T09:47:26;0.98;;;0.98;;
12776;SDS011;6452;41.572;23.732;2023-04-19T09:50:06;1.20;;;1.20;;
12776;SDS011;6452;41.572;23.732;2023-04-19T09:52:32;0.95;;;0.90;;
12776;SDS011;6452;41.572;23.732;2023-04-19T09:55:03;0.90;;;0.90;;
12776;SDS011;6452;41.572;23.732;2023-04-19T09:57:30;1.30;;;1.30;;
12776;SDS011;6452;41.572;23.732;2023-04-19T09:59:57;1.45;;;1.40;;
12776;SDS011;6452;41.572;23.732;2023-04-19T10:02:23;1.30;;;1.30;;
12776;SDS011;6452;41.572;23.732;2023-04-19T10:04:49;1.00;;;1.00;;
12776;SDS011;6452;41.572;23.732;2023-04-19T10:07:15;1.33;;;1.33;;
12776;SDS011;6452;41.572;23.732;2023-04-19T10:09:41;1.27;;;1.23;;
12776;SDS011;6452;41.572;23.732;2023-04-19T10:12:07;1.42;;;1.38;;
12776;SDS011;6452;41.572;23.732;2023-04-19T10:14:34;1.30;;;1.30;;
12776;SDS011;6452;41.572;23.732;2023-04-19T10:17:00;1.75;;;1.33;;
12776;SDS011;6452;41.572;23.732;2023-04-19T10:19:26;1.20;;;1.20;;
12776;SDS011;6452;41.572;23.732;2023-04-19T10:21:53;1.15;;;1.15;;
12776;SDS011;6452;41.572;23.732;2023-04-19T10:24:22;1.33;;;1.25;;
12776;SDS011;6452;41.572;23.732;2023-04-19T10:27:04;1.20;;;1.20;;
12776;SDS011;6452;41.572;23.732;2023-04-19T10:32:20;0.90;;;0.90;;
12776;SDS011;6452;41.572;23.732;2023-04-19T10:34:51;0.88;;;0.88;;
12776;SDS011;6452;41.572;23.732;2023-04-19T10:37:39;1.13;;;1.13;;
12776;SDS011;6452;41.572;23.732;2023-04-19T10:40:06;1.08;;;1.08;;
12776;SDS011;6452;41.572;23.732;2023-04-19T10:45:31;1.20;;;1.00;;
12776;SDS011;6452;41.572;23.732;2023-04-19T10:47:58;1.10;;;1.02;;
12776;SDS011;6452;41.572;23.732;2023-04-19T10:50:25;0.77;;;0.77;;
12776;SDS011;6452;41.572;23.732;2023-04-19T10:52:51;0.90;;;0.90;;
12776;SDS011;6452;41.572;23.732;2023-04-19T10:55:18;0.90;;;0.90;;
12776;SDS011;6452;41.572;23.732;2023-04-19T10:58:04;0.98;;;0.98;;
12776;SDS011;6452;41.572;23.732;2023-04-19T11:00:30;0.90;;;0.90;;
12776;SDS011;6452;41.572;23.732;2023-04-19T11:02:58;1.20;;;1.20;;
12776;SDS011;6452;41.572;23.732;2023-04-19T11:05:24;1.40;;;1.33;;
12776;SDS011;6452;41.572;23.732;2023-04-19T11:07:50;1.50;;;1.50;;
12776;SDS011;6452;41.572;23.732;2023-04-19T11:10:26;1.85;;;1.75;;
12776;SDS011;6452;41.572;23.732;2023-04-19T11:12:53;2.08;;;1.98;;
12776;SDS011;6452;41.572;23.732;2023-04-19T11:15:20;1.92;;;1.70;;
12776;SDS011;6452;41.572;23.732;2023-04-19T11:17:48;0.88;;;0.88;;
12776;SDS011;6452;41.572;23.732;2023-04-19T11:20:15;1.00;;;1.00;;
12776;SDS011;6452;41.572;23.732;2023-04-19T11:22:45;1.10;;;1.00;;
12776;SDS011;6452;41.572;23.732;2023-04-19T11:25:13;0.90;;;0.90;;
12776;SDS011;6452;41.572;23.732;2023-04-19T11:27:39;0.93;;;0.93;;
12776;SDS011;6452;41.572;23.732;2023-04-19T11:30:09;0.77;;;0.77;;
12776;SDS011;6452;41.572;23.732;2023-04-19T11:32:36;1.08;;;1.08;;
12776;SDS011;6452;41.572;23.732;2023-04-19T11:35:08;0.80;;;0.80;;
12776;SDS011;6452;41.572;23.732;2023-04-19T11:37:34;1.42;;;1.42;;
12776;SDS011;6452;41.572;23.732;2023-04-19T11:40:01;1.35;;;1.30;;
12776;SDS011;6452;41.572;23.732;2023-04-19T11:42:26;1.02;;;1.02;;
12776;SDS011;6452;41.572;23.732;2023-04-19T11:44:53;0.98;;;0.98;;
12776;SDS011;6452;41.572;23.732;2023-04-19T11:47:20;0.73;;;0.73;;
12776;SDS011;6452;41.572;23.732;2023-04-19T11:49:47;1.02;;;1.02;;
12776;SDS011;6452;41.572;23.732;2023-04-19T11:52:19;0.70;;;0.70;;
12776;SDS011;6452;41.572;23.732;2023-04-19T11:54:45;1.20;;;1.20;;
12776;SDS011;6452;41.572;23.732;2023-04-19T11:57:12;2.40;;;2.17;;
12776;SDS011;6452;41.572;23.732;2023-04-19T11:59:38;0.88;;;0.88;;
12776;SDS011;6452;41.572;23.732;2023-04-19T12:02:08;0.98;;;0.98;;
12776;SDS011;6452;41.572;23.732;2023-04-19T12:04:35;1.30;;;1.20;;
12776;SDS011;6452;41.572;23.732;2023-04-19T12:07:01;1.02;;;1.02;;
12776;SDS011;6452;41.572;23.732;2023-04-19T12:09:28;0.88;;;0.88;;
12776;SDS011;6452;41.572;23.732;2023-04-19T12:11:56;1.25;;;0.95;;
12776;SDS011;6452;41.572;23.732;2023-04-19T12:14:22;1.00;;;1.00;;
12776;SDS011;6452;41.572;23.732;2023-04-19T12:19:33;0.90;;;0.90;;
12776;SDS011;6452;41.572;23.732;2023-04-19T12:22:06;1.20;;;1.20;;
12776;SDS011;6452;41.572;23.732;2023-04-19T12:24:32;1.00;;;1.00;;
12776;SDS011;6452;41.572;23.732;2023-04-19T12:26:58;1.13;;;0.93;;
12776;SDS011;6452;41.572;23.732;2023-04-19T12:29:25;0.90;;;0.90;;
12776;SDS011;6452;41.572;23.732;2023-04-19T12:31:51;0.80;;;0.80;;
12776;SDS011;6452;41.572;23.732;2023-04-19T12:34:17;0.90;;;0.90;;
12776;SDS011;6452;41.572;23.732;2023-04-19T12:36:43;1.00;;;1.00;;
12776;SDS011;6452;41.572;23.732;2023-04-19T12:39:09;0.80;;;0.80;;
12776;SDS011;6452;41.572;23.732;2023-04-19T12:41:35;0.70;;;0.70;;
12776;SDS011;6452;41.572;23.732;2023-04-19T12:44:01;1.05;;;0.80;;
12776;SDS011;6452;41.572;23.732;2023-04-19T12:46:27;0.90;;;0.90;;
12776;SDS011;6452;41.572;23.732;2023-04-19T12:48:54;1.00;;;1.00;;
12776;SDS011;6452;41.572;23.732;2023-04-19T12:51:20;0.82;;;0.82;;
12776;SDS011;6452;41.572;23.732;2023-04-19T12:53:47;1.10;;;1.10;;
12776;SDS011;6452;41.572;23.732;2023-04-19T12:56:13;1.00;;;1.00;;
12776;SDS011;6452;41.572;23.732;2023-04-19T12:58:40;0.98;;;0.98;;
12776;SDS011;6452;41.572;23.732;2023-04-19T13:01:06;1.63;;;1.40;;
12776;SDS011;6452;41.572;23.732;2023-04-19T13:03:32;2.42;;;1.83;;
12776;SDS011;6452;41.572;23.732;2023-04-19T13:06:01;2.15;;;1.98;;
12776;SDS011;6452;41.572;23.732;2023-04-19T13:08:27;2.65;;;2.45;;
12776;SDS011;6452;41.572;23.732;2023-04-19T13:10:56;1.88;;;1.77;;
12776;SDS011;6452;41.572;23.732;2023-04-19T13:13:25;1.52;;;1.52;;
12776;SDS011;6452;41.572;23.732;2023-04-19T13:15:52;2.15;;;1.65;;
12776;SDS011;6452;41.572;23.732;2023-04-19T13:18:18;2.00;;;1.90;;
12776;SDS011;6452;41.572;23.732;2023-04-19T13:20:44;1.90;;;1.77;;
12776;SDS011;6452;41.572;23.732;2023-04-19T13:23:10;3.10;;;2.45;;
12776;SDS011;6452;41.572;23.732;2023-04-19T13:25:37;1.38;;;1.35;;
12776;SDS011;6452;41.572;23.732;2023-04-19T13:28:03;2.40;;;2.30;;
12776;SDS011;6452;41.572;23.732;2023-04-19T13:30:28;1.58;;;1.58;;
12776;SDS011;6452;41.572;23.732;2023-04-19T13:32:55;1.83;;;1.73;;
12776;SDS011;6452;41.572;23.732;2023-04-19T13:35:21;1.30;;;1.30;;
12776;SDS011;6452;41.572;23.732;2023-04-19T13:37:47;1.70;;;1.65;;
12776;SDS011;6452;41.572;23.732;2023-04-19T13:40:15;1.90;;;1.80;;
12776;SDS011;6452;41.572;23.732;2023-04-19T13:42:41;2.67;;;2.47;;
12776;SDS011;6452;41.572;23.732;2023-04-19T13:45:07;2.72;;;2.53;;
12776;SDS011;6452;41.572;23.732;2023-04-19T13:47:33;2.15;;;2.00;;
12776;SDS011;6452;41.572;23.732;2023-04-19T13:50:00;2.10;;;1.92;;
12776;SDS011;6452;41.572;23.732;2023-04-19T13:52:26;2.42;;;2.33;;
12776;SDS011;6452;41.572;23.732;2023-04-19T13:54:51;3.40;;;3.10;;
12776;SDS011;6452;41.572;23.732;2023-04-19T13:57:17;3.17;;;2.92;;
12776;SDS011;6452;41.572;23.732;2023-04-19T13:59:43;4.53;;;3.42;;
12776;SDS011;6452;41.572;23.732;2023-04-19T14:02:10;2.95;;;2.70;;
12776;SDS011;6452;41.572;23.732;2023-04-19T14:04:36;4.45;;;3.80;;
12776;SDS011;6452;41.572;23.732;2023-04-19T14:07:02;2.58;;;2.47;;
12776;SDS011;6452;41.572;23.732;2023-04-19T14:09:28;3.20;;;2.90;;
12776;SDS011;6452;41.572;23.732;2023-04-19T14:11:55;8.00;;;4.82;;
12776;SDS011;6452;41.572;23.732;2023-04-19T14:14:21;6.20;;;4.30;;
12776;SDS011;6452;41.572;23.732;2023-04-19T14:16:47;7.25;;;3.83;;
12776;SDS011;6452;41.572;23.732;2023-04-19T14:19:13;2.03;;;1.92;;
12776;SDS011;6452;41.572;23.732;2023-04-19T14:21:40;2.33;;;2.13;;
12776;SDS011;6452;41.572;23.732;2023-04-19T14:24:06;2.10;;;2.00;;
12776;SDS011;6452;41.572;23.732;2023-04-19T14:26:32;3.05;;;2.75;;
12776;SDS011;6452;41.572;23.732;2023-04-19T14:28:58;2.92;;;2.65;;
12776;SDS011;6452;41.572;23.732;2023-04-19T14:31:24;3.10;;;2.50;;
12776;SDS011;6452;41.572;23.732;2023-04-19T14:33:51;5.30;;;4.90;;
12776;SDS011;6452;41.572;23.732;2023-04-19T14:36:16;4.25;;;3.85;;
12776;SDS011;6452;41.572;23.732;2023-04-19T14:38:47;5.05;;;4.65;;
12776;SDS011;6452;41.572;23.732;2023-04-19T14:41:13;7.85;;;5.03;;
12776;SDS011;6452;41.572;23.732;2023-04-19T14:43:39;6.22;;;5.22;;
12776;SDS011;6452;41.572;23.732;2023-04-19T14:46:06;2.53;;;2.42;;
12776;SDS011;6452;41.572;23.732;2023-04-19T14:48:33;2.42;;;2.33;;
12776;SDS011;6452;41.572;23.732;2023-04-19T14:50:59;3.47;;;2.90;;